sensor_id;sensor_type;location;lat;lon;timestamp;P1;durP1;ratioP1;P2;durP2;ratioP2
47413;SDS011;33163;0.000;0.000;2023-02-03T00:01:50;6.78;;;1.70;;
47413;SDS011;33163;0.000;0.000;2023-02-03T00:04:17;6.82;;;2.22;;
47413;SDS011;33163;0.000;0.000;2023-02-03T00:06:44;7.65;;;2.30;;
47413;SDS011;33163;0.000;0.000;2023-02-03T00:09:11;9.07;;;2.33;;
47413;SDS011;33163;0.000;0.000;2023-02-03T00:11:38;10.95;;;2.30;;
47413;SDS011;33163;0.000;0.000;2023-02-03T00:14:05;4.30;;;2.08;;
47413;SDS011;33163;0.000;0.000;2023-02-03T00:16:32;9.25;;;2.20;;
47413;SDS011;33163;0.000;0.000;2023-02-03T00:19:00;9.13;;;2.28;;
47413;SDS011;33163;0.000;0.000;2023-02-03T00:21:27;6.28;;;2.08;;
47413;SDS011;33163;0.000;0.000;2023-02-03T00:23:53;6.95;;;1.98;;
47413;SDS011;33163;0.000;0.000;2023-02-03T00:26:20;4.90;;;1.70;;
47413;SDS011;33163;0.000;0.000;2023-02-03T00:28:49;6.68;;;1.70;;
47413;SDS011;33163;0.000;0.000;2023-02-03T00:31:15;6.75;;;1.95;;
47413;SDS011;33163;0.000;0.000;2023-02-03T00:33:44;5.43;;;1.70;;
47413;SDS011;33163;0.000;0.000;2023-02-03T00:36:12;9.80;;;2.20;;
47413;SDS011;33163;0.000;0.000;2023-02-03T00:38:39;9.23;;;2.67;;
47413;SDS011;33163;0.000;0.000;2023-02-03T00:41:06;5.03;;;2.03;;
47413;SDS011;33163;0.000;0.000;2023-02-03T00:43:32;9.07;;;2.10;;
47413;SDS011;33163;0.000;0.000;2023-02-03T00:45:59;7.68;;;1.63;;
47413;SDS011;33163;0.000;0.000;2023-02-03T00:48:26;9.80;;;1.88;;
47413;SDS011;33163;0.000;0.000;2023-02-03T00:50:53;6.38;;;2.15;;
47413;SDS011;33163;0.000;0.000;2023-02-03T00:53:21;8.98;;;2.28;;
47413;SDS011;33163;0.000;0.000;2023-02-03T00:55:47;4.95;;;1.67;;
47413;SDS011;33163;0.000;0.000;2023-02-03T00:58:14;9.63;;;2.42;;
47413;SDS011;33163;0.000;0.000;2023-02-03T01:00:41;5.10;;;2.00;;
47413;SDS011;33163;0.000;0.000;2023-02-03T01:03:08;7.00;;;2.38;;
47413;SDS011;33163;0.000;0.000;2023-02-03T01:05:35;6.82;;;1.55;;
47413;SDS011;33163;0.000;0.000;2023-02-03T01:08:02;8.95;;;2.67;;
47413;SDS011;33163;0.000;0.000;2023-02-03T01:10:30;8.57;;;2.35;;
47413;SDS011;33163;0.000;0.000;2023-02-03T01:12:57;9.75;;;2.33;;
47413;SDS011;33163;0.000;0.000;2023-02-03T01:15:24;8.18;;;2.03;;
47413;SDS011;33163;0.000;0.000;2023-02-03T01:17:50;8.02;;;2.28;;
47413;SDS011;33163;0.000;0.000;2023-02-03T01:20:17;9.88;;;2.38;;
47413;SDS011;33163;0.000;0.000;2023-02-03T01:22:45;6.45;;;1.98;;
47413;SDS011;33163;0.000;0.000;2023-02-03T01:25:12;4.57;;;1.75;;
47413;SDS011;33163;0.000;0.000;2023-02-03T01:27:40;9.63;;;2.58;;
47413;SDS011;33163;0.000;0.000;2023-02-03T01:30:07;4.95;;;1.83;;
47413;SDS011;33163;0.000;0.000;2023-02-03T01:32:35;6.53;;;2.03;;
47413;SDS011;33163;0.000;0.000;2023-02-03T01:35:01;7.18;;;2.13;;
47413;SDS011;33163;0.000;0.000;2023-02-03T01:37:28;9.60;;;2.28;;
47413;SDS011;33163;0.000;0.000;2023-02-03T01:39:55;5.93;;;1.77;;
47413;SDS011;33163;0.000;0.000;2023-02-03T01:42:22;7.25;;;2.15;;
47413;SDS011;33163;0.000;0.000;2023-02-03T01:44:50;8.68;;;2.15;;
47413;SDS011;33163;0.000;0.000;2023-02-03T01:47:23;9.13;;;2.47;;
47413;SDS011;33163;0.000;0.000;2023-02-03T01:49:55;6.20;;;2.13;;
47413;SDS011;33163;0.000;0.000;2023-02-03T01:52:27;6.60;;;2.00;;
47413;SDS011;33163;0.000;0.000;2023-02-03T01:54:55;5.10;;;1.98;;
47413;SDS011;33163;0.000;0.000;2023-02-03T01:57:25;6.40;;;1.75;;
47413;SDS011;33163;0.000;0.000;2023-02-03T01:59:57;6.85;;;1.90;;
47413;SDS011;33163;0.000;0.000;2023-02-03T02:02:25;5.32;;;1.88;;
47413;SDS011;33163;0.000;0.000;2023-02-03T02:04:54;5.10;;;1.70;;
47413;SDS011;33163;0.000;0.000;2023-02-03T02:07:25;7.57;;;1.80;;
47413;SDS011;33163;0.000;0.000;2023-02-03T02:09:52;7.05;;;2.47;;
47413;SDS011;33163;0.000;0.000;2023-02-03T02:12:20;7.80;;;1.90;;
47413;SDS011;33163;0.000;0.000;2023-02-03T02:14:47;8.50;;;1.83;;
47413;SDS011;33163;0.000;0.000;2023-02-03T02:17:19;3.90;;;2.00;;
47413;SDS011;33163;0.000;0.000;2023-02-03T02:20:23;5.53;;;1.83;;
47413;SDS011;33163;0.000;0.000;2023-02-03T02:29:08;5.18;;;1.85;;
47413;SDS011;33163;0.000;0.000;2023-02-03T02:31:52;6.72;;;1.90;;
47413;SDS011;33163;0.000;0.000;2023-02-03T02:34:30;4.93;;;1.70;;
47413;SDS011;33163;0.000;0.000;2023-02-03T02:37:08;7.97;;;1.90;;
47413;SDS011;33163;0.000;0.000;2023-02-03T02:39:44;5.03;;;1.40;;
47413;SDS011;33163;0.000;0.000;2023-02-03T02:42:17;7.18;;;1.52;;
47413;SDS011;33163;0.000;0.000;2023-02-03T02:44:50;5.35;;;2.33;;
47413;SDS011;33163;0.000;0.000;2023-02-03T02:47:20;6.18;;;2.03;;
47413;SDS011;33163;0.000;0.000;2023-02-03T02:49:50;7.07;;;1.90;;
47413;SDS011;33163;0.000;0.000;2023-02-03T02:52:23;7.35;;;1.65;;
47413;SDS011;33163;0.000;0.000;2023-02-03T02:54:55;5.05;;;1.50;;
47413;SDS011;33163;0.000;0.000;2023-02-03T02:57:26;5.10;;;1.88;;
47413;SDS011;33163;0.000;0.000;2023-02-03T02:59:55;4.90;;;1.77;;
47413;SDS011;33163;0.000;0.000;2023-02-03T03:02:28;5.13;;;1.77;;
47413;SDS011;33163;0.000;0.000;2023-02-03T03:04:57;7.05;;;1.77;;
47413;SDS011;33163;0.000;0.000;2023-02-03T03:07:25;5.63;;;1.75;;
47413;SDS011;33163;0.000;0.000;2023-02-03T03:09:54;4.55;;;1.40;;
47413;SDS011;33163;0.000;0.000;2023-02-03T03:12:23;4.78;;;1.80;;
47413;SDS011;33163;0.000;0.000;2023-02-03T03:14:55;4.43;;;1.52;;
47413;SDS011;33163;0.000;0.000;2023-02-03T03:17:27;6.53;;;1.77;;
47413;SDS011;33163;0.000;0.000;2023-02-03T03:19:59;6.78;;;1.80;;
47413;SDS011;33163;0.000;0.000;2023-02-03T03:22:29;5.35;;;1.50;;
47413;SDS011;33163;0.000;0.000;2023-02-03T03:25:00;4.20;;;1.60;;
47413;SDS011;33163;0.000;0.000;2023-02-03T03:27:31;4.40;;;1.55;;
47413;SDS011;33163;0.000;0.000;2023-02-03T03:30:04;6.65;;;1.73;;
47413;SDS011;33163;0.000;0.000;2023-02-03T03:32:36;4.22;;;1.45;;
47413;SDS011;33163;0.000;0.000;2023-02-03T03:35:04;8.73;;;2.15;;
47413;SDS011;33163;0.000;0.000;2023-02-03T03:37:33;7.40;;;1.67;;
47413;SDS011;33163;0.000;0.000;2023-02-03T03:40:05;3.55;;;1.35;;
47413;SDS011;33163;0.000;0.000;2023-02-03T03:42:37;5.57;;;1.50;;
47413;SDS011;33163;0.000;0.000;2023-02-03T03:45:08;4.75;;;1.58;;
47413;SDS011;33163;0.000;0.000;2023-02-03T03:47:41;6.28;;;1.83;;
47413;SDS011;33163;0.000;0.000;2023-02-03T03:50:14;3.85;;;1.50;;
47413;SDS011;33163;0.000;0.000;2023-02-03T03:52:44;6.07;;;1.65;;
47413;SDS011;33163;0.000;0.000;2023-02-03T03:55:13;4.20;;;1.50;;
47413;SDS011;33163;0.000;0.000;2023-02-03T03:57:42;6.03;;;1.25;;
47413;SDS011;33163;0.000;0.000;2023-02-03T04:00:14;2.50;;;1.40;;
47413;SDS011;33163;0.000;0.000;2023-02-03T04:02:47;4.95;;;1.52;;
47413;SDS011;33163;0.000;0.000;2023-02-03T04:05:17;4.30;;;1.55;;
47413;SDS011;33163;0.000;0.000;2023-02-03T04:07:45;4.55;;;1.70;;
47413;SDS011;33163;0.000;0.000;2023-02-03T04:10:15;6.10;;;1.58;;
47413;SDS011;33163;0.000;0.000;2023-02-03T04:12:47;3.00;;;1.52;;
47413;SDS011;33163;0.000;0.000;2023-02-03T04:15:14;4.70;;;1.67;;
47413;SDS011;33163;0.000;0.000;2023-02-03T04:17:41;5.43;;;1.45;;
47413;SDS011;33163;0.000;0.000;2023-02-03T04:20:09;5.35;;;1.38;;
47413;SDS011;33163;0.000;0.000;2023-02-03T04:22:37;2.25;;;1.10;;
47413;SDS011;33163;0.000;0.000;2023-02-03T04:25:04;7.43;;;1.70;;
47413;SDS011;33163;0.000;0.000;2023-02-03T04:27:31;7.00;;;2.13;;
47413;SDS011;33163;0.000;0.000;2023-02-03T04:29:58;4.97;;;1.77;;
47413;SDS011;33163;0.000;0.000;2023-02-03T04:32:25;6.70;;;2.10;;
47413;SDS011;33163;0.000;0.000;2023-02-03T04:34:52;3.17;;;1.20;;
47413;SDS011;33163;0.000;0.000;2023-02-03T04:37:20;3.50;;;1.17;;
47413;SDS011;33163;0.000;0.000;2023-02-03T04:39:47;3.40;;;1.20;;
47413;SDS011;33163;0.000;0.000;2023-02-03T04:42:15;3.70;;;1.25;;
47413;SDS011;33163;0.000;0.000;2023-02-03T04:44:42;5.63;;;1.83;;
47413;SDS011;33163;0.000;0.000;2023-02-03T04:47:08;2.60;;;1.52;;
47413;SDS011;33163;0.000;0.000;2023-02-03T04:49:35;7.13;;;1.98;;
47413;SDS011;33163;0.000;0.000;2023-02-03T04:52:02;3.55;;;2.00;;
47413;SDS011;33163;0.000;0.000;2023-02-03T04:54:30;5.85;;;1.95;;
47413;SDS011;33163;0.000;0.000;2023-02-03T04:56:58;2.63;;;1.38;;
47413;SDS011;33163;0.000;0.000;2023-02-03T04:59:25;7.65;;;1.63;;
47413;SDS011;33163;0.000;0.000;2023-02-03T05:01:52;3.80;;;1.45;;
47413;SDS011;33163;0.000;0.000;2023-02-03T05:04:19;4.07;;;1.23;;
47413;SDS011;33163;0.000;0.000;2023-02-03T05:06:46;3.40;;;1.50;;
47413;SDS011;33163;0.000;0.000;2023-02-03T05:09:13;6.32;;;1.23;;
47413;SDS011;33163;0.000;0.000;2023-02-03T05:11:41;6.55;;;1.50;;
47413;SDS011;33163;0.000;0.000;2023-02-03T05:14:08;6.18;;;1.25;;
47413;SDS011;33163;0.000;0.000;2023-02-03T05:16:34;6.32;;;1.60;;
47413;SDS011;33163;0.000;0.000;2023-02-03T05:19:01;5.05;;;1.70;;
47413;SDS011;33163;0.000;0.000;2023-02-03T05:21:28;3.38;;;1.45;;
47413;SDS011;33163;0.000;0.000;2023-02-03T05:23:55;4.75;;;1.45;;
47413;SDS011;33163;0.000;0.000;2023-02-03T05:26:22;5.50;;;1.77;;
47413;SDS011;33163;0.000;0.000;2023-02-03T05:28:50;6.10;;;1.75;;
47413;SDS011;33163;0.000;0.000;2023-02-03T05:31:17;5.88;;;1.67;;
47413;SDS011;33163;0.000;0.000;2023-02-03T05:33:43;6.60;;;1.63;;
47413;SDS011;33163;0.000;0.000;2023-02-03T05:36:10;4.55;;;1.48;;
47413;SDS011;33163;0.000;0.000;2023-02-03T05:38:37;6.35;;;1.83;;
47413;SDS011;33163;0.000;0.000;2023-02-03T05:41:03;3.85;;;1.30;;
47413;SDS011;33163;0.000;0.000;2023-02-03T05:43:49;5.10;;;1.50;;
47413;SDS011;33163;0.000;0.000;2023-02-03T05:46:17;6.55;;;1.52;;
47413;SDS011;33163;0.000;0.000;2023-02-03T05:48:44;7.55;;;1.88;;
47413;SDS011;33163;0.000;0.000;2023-02-03T05:51:11;6.95;;;1.67;;
47413;SDS011;33163;0.000;0.000;2023-02-03T05:53:38;6.13;;;1.45;;
47413;SDS011;33163;0.000;0.000;2023-02-03T05:56:05;7.15;;;1.70;;
47413;SDS011;33163;0.000;0.000;2023-02-03T05:58:32;4.05;;;1.58;;
47413;SDS011;33163;0.000;0.000;2023-02-03T06:01:00;2.80;;;1.25;;
47413;SDS011;33163;0.000;0.000;2023-02-03T06:03:27;6.57;;;1.58;;
47413;SDS011;33163;0.000;0.000;2023-02-03T06:05:53;5.03;;;1.17;;
47413;SDS011;33163;0.000;0.000;2023-02-03T06:08:20;7.00;;;2.00;;
47413;SDS011;33163;0.000;0.000;2023-02-03T06:10:47;6.43;;;1.55;;
47413;SDS011;33163;0.000;0.000;2023-02-03T06:13:14;4.85;;;1.50;;
47413;SDS011;33163;0.000;0.000;2023-02-03T06:15:41;6.22;;;1.50;;
47413;SDS011;33163;0.000;0.000;2023-02-03T06:18:10;5.07;;;1.65;;
47413;SDS011;33163;0.000;0.000;2023-02-03T06:20:37;4.88;;;1.80;;
47413;SDS011;33163;0.000;0.000;2023-02-03T06:23:03;4.07;;;1.70;;
47413;SDS011;33163;0.000;0.000;2023-02-03T06:25:30;4.72;;;1.50;;
47413;SDS011;33163;0.000;0.000;2023-02-03T06:27:57;6.63;;;2.17;;
47413;SDS011;33163;0.000;0.000;2023-02-03T06:30:24;6.80;;;2.03;;
47413;SDS011;33163;0.000;0.000;2023-02-03T06:32:51;6.32;;;1.55;;
47413;SDS011;33163;0.000;0.000;2023-02-03T06:35:19;4.22;;;1.70;;
47413;SDS011;33163;0.000;0.000;2023-02-03T06:37:46;8.60;;;2.20;;
47413;SDS011;33163;0.000;0.000;2023-02-03T06:40:12;8.00;;;1.85;;
47413;SDS011;33163;0.000;0.000;2023-02-03T06:42:39;3.15;;;1.33;;
47413;SDS011;33163;0.000;0.000;2023-02-03T06:45:09;7.10;;;1.85;;
47413;SDS011;33163;0.000;0.000;2023-02-03T06:47:38;10.23;;;2.10;;
47413;SDS011;33163;0.000;0.000;2023-02-03T06:50:05;8.65;;;2.28;;
47413;SDS011;33163;0.000;0.000;2023-02-03T06:52:33;9.18;;;1.67;;
47413;SDS011;33163;0.000;0.000;2023-02-03T06:55:00;6.18;;;1.67;;
47413;SDS011;33163;0.000;0.000;2023-02-03T06:57:27;10.30;;;2.10;;
47413;SDS011;33163;0.000;0.000;2023-02-03T06:59:54;8.68;;;1.80;;
47413;SDS011;33163;0.000;0.000;2023-02-03T07:02:20;6.82;;;1.65;;
47413;SDS011;33163;0.000;0.000;2023-02-03T07:04:48;7.82;;;1.98;;
47413;SDS011;33163;0.000;0.000;2023-02-03T07:07:15;7.68;;;1.45;;
47413;SDS011;33163;0.000;0.000;2023-02-03T07:09:43;4.28;;;1.75;;
47413;SDS011;33163;0.000;0.000;2023-02-03T07:12:10;11.25;;;2.05;;
47413;SDS011;33163;0.000;0.000;2023-02-03T07:14:36;3.72;;;1.55;;
47413;SDS011;33163;0.000;0.000;2023-02-03T07:17:03;9.07;;;1.98;;
47413;SDS011;33163;0.000;0.000;2023-02-03T07:19:31;8.60;;;2.00;;
47413;SDS011;33163;0.000;0.000;2023-02-03T07:21:57;8.98;;;2.15;;
47413;SDS011;33163;0.000;0.000;2023-02-03T07:24:24;4.80;;;1.63;;
47413;SDS011;33163;0.000;0.000;2023-02-03T07:26:52;9.05;;;2.55;;
47413;SDS011;33163;0.000;0.000;2023-02-03T07:29:19;13.85;;;2.05;;
47413;SDS011;33163;0.000;0.000;2023-02-03T07:31:46;12.98;;;2.42;;
47413;SDS011;33163;0.000;0.000;2023-02-03T07:34:12;5.63;;;2.13;;
47413;SDS011;33163;0.000;0.000;2023-02-03T07:36:39;5.53;;;1.52;;
47413;SDS011;33163;0.000;0.000;2023-02-03T07:39:06;5.25;;;1.77;;
47413;SDS011;33163;0.000;0.000;2023-02-03T07:41:33;9.45;;;1.85;;
47413;SDS011;33163;0.000;0.000;2023-02-03T07:44:01;17.33;;;2.00;;
47413;SDS011;33163;0.000;0.000;2023-02-03T07:46:28;12.88;;;2.10;;
47413;SDS011;33163;0.000;0.000;2023-02-03T07:48:54;11.70;;;2.42;;
47413;SDS011;33163;0.000;0.000;2023-02-03T07:51:21;7.75;;;1.85;;
47413;SDS011;33163;0.000;0.000;2023-02-03T07:53:48;11.73;;;2.17;;
47413;SDS011;33163;0.000;0.000;2023-02-03T07:56:15;5.45;;;1.55;;
47413;SDS011;33163;0.000;0.000;2023-02-03T07:58:41;11.35;;;2.60;;
47413;SDS011;33163;0.000;0.000;2023-02-03T08:01:10;9.60;;;2.17;;
47413;SDS011;33163;0.000;0.000;2023-02-03T08:03:38;9.38;;;2.40;;
47413;SDS011;33163;0.000;0.000;2023-02-03T08:06:05;8.40;;;1.63;;
47413;SDS011;33163;0.000;0.000;2023-02-03T08:08:32;6.68;;;2.50;;
47413;SDS011;33163;0.000;0.000;2023-02-03T08:10:59;12.02;;;2.33;;
47413;SDS011;33163;0.000;0.000;2023-02-03T08:13:26;8.88;;;2.75;;
47413;SDS011;33163;0.000;0.000;2023-02-03T08:15:53;6.07;;;2.15;;
47413;SDS011;33163;0.000;0.000;2023-02-03T08:18:21;11.23;;;2.03;;
47413;SDS011;33163;0.000;0.000;2023-02-03T08:20:48;8.00;;;2.20;;
47413;SDS011;33163;0.000;0.000;2023-02-03T08:23:15;7.78;;;2.20;;
47413;SDS011;33163;0.000;0.000;2023-02-03T08:25:42;7.88;;;2.40;;
47413;SDS011;33163;0.000;0.000;2023-02-03T08:28:09;12.70;;;2.92;;
47413;SDS011;33163;0.000;0.000;2023-02-03T08:30:35;9.90;;;2.65;;
47413;SDS011;33163;0.000;0.000;2023-02-03T08:33:02;5.57;;;1.75;;
47413;SDS011;33163;0.000;0.000;2023-02-03T08:35:30;11.50;;;2.30;;
47413;SDS011;33163;0.000;0.000;2023-02-03T08:37:57;6.13;;;1.73;;
47413;SDS011;33163;0.000;0.000;2023-02-03T08:40:24;9.93;;;1.88;;
47413;SDS011;33163;0.000;0.000;2023-02-03T08:42:51;8.27;;;2.67;;
47413;SDS011;33163;0.000;0.000;2023-02-03T08:45:17;6.47;;;2.00;;
47413;SDS011;33163;0.000;0.000;2023-02-03T08:47:44;10.48;;;2.72;;
47413;SDS011;33163;0.000;0.000;2023-02-03T08:50:11;12.75;;;3.38;;
47413;SDS011;33163;0.000;0.000;2023-02-03T08:52:39;7.13;;;2.03;;
47413;SDS011;33163;0.000;0.000;2023-02-03T08:55:06;7.28;;;2.40;;
47413;SDS011;33163;0.000;0.000;2023-02-03T08:57:34;8.88;;;2.42;;
47413;SDS011;33163;0.000;0.000;2023-02-03T09:00:01;13.18;;;1.67;;
47413;SDS011;33163;0.000;0.000;2023-02-03T09:02:30;3.00;;;1.35;;
47413;SDS011;33163;0.000;0.000;2023-02-03T09:04:57;7.03;;;1.95;;
47413;SDS011;33163;0.000;0.000;2023-02-03T09:07:24;6.60;;;2.22;;
47413;SDS011;33163;0.000;0.000;2023-02-03T09:09:52;4.80;;;1.75;;
47413;SDS011;33163;0.000;0.000;2023-02-03T09:12:19;7.82;;;2.28;;
47413;SDS011;33163;0.000;0.000;2023-02-03T09:14:45;7.45;;;2.30;;
47413;SDS011;33163;0.000;0.000;2023-02-03T09:17:12;6.65;;;2.15;;
47413;SDS011;33163;0.000;0.000;2023-02-03T09:19:39;5.68;;;2.13;;
47413;SDS011;33163;0.000;0.000;2023-02-03T09:22:06;6.22;;;2.13;;
47413;SDS011;33163;0.000;0.000;2023-02-03T09:24:33;11.40;;;2.35;;
47413;SDS011;33163;0.000;0.000;2023-02-03T09:27:01;5.78;;;1.83;;
47413;SDS011;33163;0.000;0.000;2023-02-03T09:29:27;6.30;;;2.60;;
47413;SDS011;33163;0.000;0.000;2023-02-03T09:31:54;8.57;;;2.40;;
47413;SDS011;33163;0.000;0.000;2023-02-03T09:34:21;9.48;;;2.75;;
47413;SDS011;33163;0.000;0.000;2023-02-03T09:36:48;10.20;;;3.22;;
47413;SDS011;33163;0.000;0.000;2023-02-03T09:39:15;8.57;;;2.63;;
47413;SDS011;33163;0.000;0.000;2023-02-03T09:41:46;7.13;;;2.10;;
47413;SDS011;33163;0.000;0.000;2023-02-03T09:44:27;6.00;;;2.10;;
47413;SDS011;33163;0.000;0.000;2023-02-03T09:47:00;7.10;;;2.30;;
47413;SDS011;33163;0.000;0.000;2023-02-03T09:49:34;10.65;;;2.75;;
47413;SDS011;33163;0.000;0.000;2023-02-03T09:52:07;8.88;;;2.72;;
47413;SDS011;33163;0.000;0.000;2023-02-03T09:54:40;7.05;;;1.90;;
47413;SDS011;33163;0.000;0.000;2023-02-03T09:57:12;4.43;;;1.88;;
47413;SDS011;33163;0.000;0.000;2023-02-03T09:59:43;10.35;;;2.30;;
47413;SDS011;33163;0.000;0.000;2023-02-03T10:02:18;6.97;;;2.10;;
47413;SDS011;33163;0.000;0.000;2023-02-03T10:04:53;8.80;;;2.28;;
47413;SDS011;33163;0.000;0.000;2023-02-03T10:07:27;8.57;;;2.27;;
47413;SDS011;33163;0.000;0.000;2023-02-03T10:10:00;13.00;;;2.35;;
47413;SDS011;33163;0.000;0.000;2023-02-03T10:12:40;9.88;;;1.98;;
47413;SDS011;33163;0.000;0.000;2023-02-03T10:15:30;5.22;;;2.00;;
47413;SDS011;33163;0.000;0.000;2023-02-03T10:18:13;6.88;;;2.00;;
47413;SDS011;33163;0.000;0.000;2023-02-03T10:20:43;12.63;;;2.65;;
47413;SDS011;33163;0.000;0.000;2023-02-03T10:23:13;5.88;;;2.50;;
47413;SDS011;33163;0.000;0.000;2023-02-03T10:25:42;5.03;;;2.22;;
47413;SDS011;33163;0.000;0.000;2023-02-03T10:28:14;8.23;;;2.40;;
47413;SDS011;33163;0.000;0.000;2023-02-03T10:30:46;14.98;;;2.10;;
47413;SDS011;33163;0.000;0.000;2023-02-03T10:33:15;9.18;;;2.65;;
47413;SDS011;33163;0.000;0.000;2023-02-03T10:35:45;3.78;;;1.73;;
47413;SDS011;33163;0.000;0.000;2023-02-03T10:38:18;5.32;;;2.00;;
47413;SDS011;33163;0.000;0.000;2023-02-03T10:40:52;7.80;;;1.80;;
47413;SDS011;33163;0.000;0.000;2023-02-03T10:43:19;6.00;;;2.03;;
47413;SDS011;33163;0.000;0.000;2023-02-03T10:46:04;6.75;;;2.03;;
47413;SDS011;33163;0.000;0.000;2023-02-03T10:48:31;6.97;;;2.40;;
47413;SDS011;33163;0.000;0.000;2023-02-03T10:50:58;10.70;;;2.30;;
47413;SDS011;33163;0.000;0.000;2023-02-03T10:53:32;9.63;;;1.92;;
47413;SDS011;33163;0.000;0.000;2023-02-03T10:56:00;7.05;;;2.60;;
47413;SDS011;33163;0.000;0.000;2023-02-03T10:58:30;10.90;;;2.25;;
47413;SDS011;33163;0.000;0.000;2023-02-03T11:01:04;11.15;;;2.08;;
47413;SDS011;33163;0.000;0.000;2023-02-03T11:03:34;6.38;;;2.20;;
47413;SDS011;33163;0.000;0.000;2023-02-03T11:06:05;6.15;;;2.08;;
47413;SDS011;33163;0.000;0.000;2023-02-03T11:08:34;6.28;;;2.28;;
47413;SDS011;33163;0.000;0.000;2023-02-03T11:11:02;9.63;;;2.42;;
47413;SDS011;33163;0.000;0.000;2023-02-03T11:13:31;5.53;;;2.17;;
47413;SDS011;33163;0.000;0.000;2023-02-03T11:15:58;8.32;;;2.25;;
47413;SDS011;33163;0.000;0.000;2023-02-03T11:21:16;6.80;;;2.10;;
47413;SDS011;33163;0.000;0.000;2023-02-03T11:23:48;7.05;;;1.98;;
47413;SDS011;33163;0.000;0.000;2023-02-03T11:26:31;5.38;;;1.67;;
47413;SDS011;33163;0.000;0.000;2023-02-03T11:29:01;10.05;;;2.30;;
47413;SDS011;33163;0.000;0.000;2023-02-03T11:31:31;5.88;;;2.10;;
47413;SDS011;33163;0.000;0.000;2023-02-03T11:34:01;4.03;;;1.77;;
47413;SDS011;33163;0.000;0.000;2023-02-03T11:36:31;6.47;;;1.92;;
47413;SDS011;33163;0.000;0.000;2023-02-03T11:39:09;8.05;;;2.13;;
47413;SDS011;33163;0.000;0.000;2023-02-03T11:41:41;9.82;;;2.28;;
47413;SDS011;33163;0.000;0.000;2023-02-03T11:44:11;8.25;;;2.00;;
47413;SDS011;33163;0.000;0.000;2023-02-03T11:46:42;7.38;;;2.38;;
47413;SDS011;33163;0.000;0.000;2023-02-03T11:49:14;6.85;;;2.60;;
47413;SDS011;33163;0.000;0.000;2023-02-03T11:52:21;7.30;;;2.92;;
47413;SDS011;33163;0.000;0.000;2023-02-03T11:55:11;5.55;;;2.17;;
47413;SDS011;33163;0.000;0.000;2023-02-03T11:57:49;6.65;;;1.83;;
47413;SDS011;33163;0.000;0.000;2023-02-03T12:00:25;11.00;;;2.45;;
47413;SDS011;33163;0.000;0.000;2023-02-03T12:03:05;1201.15;;;635.25;;
47413;SDS011;33163;0.000;0.000;2023-02-03T12:06:07;593.00;;;314.98;;
47413;SDS011;33163;0.000;0.000;2023-02-03T12:08:52;443.20;;;226.77;;
47413;SDS011;33163;0.000;0.000;2023-02-03T12:11:33;423.05;;;208.18;;
47413;SDS011;33163;0.000;0.000;2023-02-03T12:14:16;393.15;;;194.18;;
47413;SDS011;33163;0.000;0.000;2023-02-03T12:17:03;381.33;;;188.35;;
47413;SDS011;33163;0.000;0.000;2023-02-03T12:20:02;366.90;;;178.35;;
47413;SDS011;33163;0.000;0.000;2023-02-03T12:22:40;352.98;;;167.43;;
47413;SDS011;33163;0.000;0.000;2023-02-03T12:25:20;337.85;;;164.35;;
47413;SDS011;33163;0.000;0.000;2023-02-03T12:28:00;338.15;;;163.85;;
47413;SDS011;33163;0.000;0.000;2023-02-03T12:30:38;331.48;;;157.20;;
47413;SDS011;33163;0.000;0.000;2023-02-03T12:33:10;322.15;;;156.27;;
47413;SDS011;33163;0.000;0.000;2023-02-03T12:35:43;318.52;;;153.85;;
47413;SDS011;33163;0.000;0.000;2023-02-03T12:38:20;318.92;;;151.55;;
47413;SDS011;33163;0.000;0.000;2023-02-03T12:40:57;300.30;;;143.05;;
47413;SDS011;33163;0.000;0.000;2023-02-03T12:43:27;286.52;;;135.88;;
47413;SDS011;33163;0.000;0.000;2023-02-03T12:46:02;290.65;;;135.82;;
47413;SDS011;33163;0.000;0.000;2023-02-03T12:48:41;281.15;;;133.57;;
47413;SDS011;33163;0.000;0.000;2023-02-03T12:53:46;258.90;;;122.40;;
47413;SDS011;33163;0.000;0.000;2023-02-03T12:56:17;256.48;;;119.60;;
47413;SDS011;33163;0.000;0.000;2023-02-03T12:58:50;246.80;;;118.82;;
47413;SDS011;33163;0.000;0.000;2023-02-03T13:01:22;248.73;;;117.13;;
47413;SDS011;33163;0.000;0.000;2023-02-03T13:03:53;229.05;;;109.18;;
47413;SDS011;33163;0.000;0.000;2023-02-03T13:06:26;245.70;;;112.10;;
47413;SDS011;33163;0.000;0.000;2023-02-03T13:09:01;227.50;;;107.65;;
47413;SDS011;33163;0.000;0.000;2023-02-03T13:11:48;223.40;;;105.25;;
47413;SDS011;33163;0.000;0.000;2023-02-03T13:14:22;223.23;;;106.10;;
47413;SDS011;33163;0.000;0.000;2023-02-03T13:16:54;191.77;;;96.43;;
47413;SDS011;33163;0.000;0.000;2023-02-03T13:19:26;220.13;;;101.75;;
47413;SDS011;33163;0.000;0.000;2023-02-03T13:21:58;208.38;;;96.90;;
47413;SDS011;33163;0.000;0.000;2023-02-03T13:24:27;205.38;;;96.43;;
47413;SDS011;33163;0.000;0.000;2023-02-03T13:27:05;195.75;;;91.45;;
47413;SDS011;33163;0.000;0.000;2023-02-03T13:30:02;185.68;;;89.20;;
47413;SDS011;33163;0.000;0.000;2023-02-03T13:33:05;178.30;;;87.13;;
47413;SDS011;33163;0.000;0.000;2023-02-03T13:36:00;177.07;;;84.32;;
47413;SDS011;33163;0.000;0.000;2023-02-03T13:38:38;179.60;;;85.45;;
47413;SDS011;33163;0.000;0.000;2023-02-03T13:41:20;171.25;;;79.82;;
47413;SDS011;33163;0.000;0.000;2023-02-03T13:43:55;165.75;;;80.63;;
47413;SDS011;33163;0.000;0.000;2023-02-03T13:46:25;167.63;;;78.45;;
47413;SDS011;33163;0.000;0.000;2023-02-03T13:48:55;163.55;;;75.93;;
47413;SDS011;33163;0.000;0.000;2023-02-03T13:51:25;170.70;;;79.85;;
47413;SDS011;33163;0.000;0.000;2023-02-03T13:53:59;162.40;;;75.03;;
47413;SDS011;33163;0.000;0.000;2023-02-03T13:56:29;150.40;;;72.63;;
47413;SDS011;33163;0.000;0.000;2023-02-03T13:58:58;156.23;;;73.45;;
47413;SDS011;33163;0.000;0.000;2023-02-03T14:01:30;145.60;;;69.45;;
47413;SDS011;33163;0.000;0.000;2023-02-03T14:04:03;146.57;;;70.50;;
47413;SDS011;33163;0.000;0.000;2023-02-03T14:09:33;132.35;;;62.33;;
47413;SDS011;33163;0.000;0.000;2023-02-03T14:15:15;120.05;;;59.35;;
47413;SDS011;33163;0.000;0.000;2023-02-03T14:17:56;119.03;;;58.05;;
47413;SDS011;33163;0.000;0.000;2023-02-03T14:23:37;113.63;;;56.22;;
47413;SDS011;33163;0.000;0.000;2023-02-03T14:26:13;111.90;;;55.05;;
47413;SDS011;33163;0.000;0.000;2023-02-03T14:28:47;108.43;;;51.50;;
47413;SDS011;33163;0.000;0.000;2023-02-03T14:31:17;107.57;;;50.33;;
47413;SDS011;33163;0.000;0.000;2023-02-03T14:33:49;112.80;;;49.90;;
47413;SDS011;33163;0.000;0.000;2023-02-03T14:36:35;101.18;;;50.05;;
47413;SDS011;33163;0.000;0.000;2023-02-03T14:42:02;107.47;;;50.45;;
47413;SDS011;33163;0.000;0.000;2023-02-03T14:44:38;95.80;;;46.55;;
47413;SDS011;33163;0.000;0.000;2023-02-03T14:47:13;106.75;;;49.00;;
47413;SDS011;33163;0.000;0.000;2023-02-03T14:49:57;97.32;;;46.35;;
47413;SDS011;33163;0.000;0.000;2023-02-03T14:52:40;91.95;;;42.97;;
47413;SDS011;33163;0.000;0.000;2023-02-03T14:55:43;95.93;;;44.80;;
47413;SDS011;33163;0.000;0.000;2023-02-03T14:58:22;87.72;;;42.55;;
47413;SDS011;33163;0.000;0.000;2023-02-03T15:00:54;87.85;;;43.08;;
47413;SDS011;33163;0.000;0.000;2023-02-03T15:03:23;85.18;;;41.10;;
47413;SDS011;33163;0.000;0.000;2023-02-03T15:05:54;78.78;;;41.30;;
47413;SDS011;33163;0.000;0.000;2023-02-03T15:11:15;82.88;;;37.85;;
47413;SDS011;33163;0.000;0.000;2023-02-03T15:13:48;83.55;;;37.10;;
47413;SDS011;33163;0.000;0.000;2023-02-03T15:16:17;76.45;;;36.40;;
47413;SDS011;33163;0.000;0.000;2023-02-03T15:18:51;70.65;;;36.00;;
47413;SDS011;33163;0.000;0.000;2023-02-03T15:21:19;83.85;;;37.22;;
47413;SDS011;33163;0.000;0.000;2023-02-03T15:23:46;72.53;;;35.15;;
47413;SDS011;33163;0.000;0.000;2023-02-03T15:26:15;65.30;;;32.28;;
47413;SDS011;33163;0.000;0.000;2023-02-03T15:28:49;65.63;;;31.00;;
47413;SDS011;33163;0.000;0.000;2023-02-03T15:31:21;57.40;;;30.58;;
47413;SDS011;33163;0.000;0.000;2023-02-03T15:33:57;61.90;;;32.25;;
47413;SDS011;33163;0.000;0.000;2023-02-03T15:36:30;69.65;;;29.85;;
47413;SDS011;33163;0.000;0.000;2023-02-03T15:39:05;62.47;;;29.88;;